Time;durP1;ratioP1;P1;durP2;ratioP2;P2;SDS_P1;SDS_P2;PMS_P1;PMS_P2;Temp;Humidity;BMP_temperature;BMP_pressure;BME280_temperature;BME280_humidity;BME280_pressure;Samples;Min_cycle;Max_cycle;Signal;HPM_P1;HPM_P2
2022/12/20 00:01:38;;;;;;;4.40;4.00;;;22.10;56.30;;;;;;5021715;28;20198;-39
2022/12/20 00:04:05;;;;;;;4.57;3.75;;;22.20;56.10;;;;;;5028924;28;20216;-36
2022/12/20 00:06:34;;;;;;;4.78;3.80;;;22.20;56.10;;;;;;5023158;28;20220;-37
2022/12/20 00:09:03;;;;;;;5.60;3.95;;;22.10;56.20;;;;;;5027271;28;20285;-36
2022/12/20 00:11:30;;;;;;;4.18;3.60;;;22.10;56.10;;;;;;5023108;28;20201;-38
2022/12/20 00:13:56;;;;;;;5.05;4.55;;;22.00;56.30;;;;;;5029006;28;21631;-36
2022/12/20 00:16:25;;;;;;;4.10;3.22;;;21.90;56.30;;;;;;5023333;28;20637;-37
2022/12/20 00:18:55;;;;;;;4.93;3.08;;;21.80;56.50;;;;;;5021172;28;20199;-36
2022/12/20 00:21:22;;;;;;;5.18;3.70;;;21.70;56.50;;;;;;5031208;28;20193;-37
2022/12/20 00:23:49;;;;;;;11.50;4.70;;;21.60;56.60;;;;;;5029561;28;20677;-36
2022/12/20 00:26:18;;;;;;;4.35;3.20;;;21.60;56.80;;;;;;5032761;28;20484;-39
2022/12/20 00:28:45;;;;;;;4.75;3.00;;;21.70;56.80;;;;;;5027063;28;20220;-39
2022/12/20 00:31:14;;;;;;;3.58;2.92;;;21.80;56.60;;;;;;5025564;28;20681;-43
2022/12/20 00:33:41;;;;;;;4.20;3.42;;;21.90;56.60;;;;;;5024280;28;20212;-37
2022/12/20 00:36:10;;;;;;;7.57;3.08;;;21.80;56.60;;;;;;5030985;28;20192;-36
2022/12/20 00:38:37;;;;;;;6.43;3.67;;;21.80;56.60;;;;;;5019489;28;20219;-40
2022/12/20 00:41:07;;;;;;;5.28;3.58;;;21.70;56.60;;;;;;5034034;28;20196;-35
2022/12/20 00:43:35;;;;;;;4.18;3.75;;;21.70;56.70;;;;;;5022415;28;20597;-37
2022/12/20 00:46:02;;;;;;;3.83;3.13;;;21.60;56.80;;;;;;5026238;28;20204;-36
2022/12/20 00:48:29;;;;;;;5.75;3.20;;;21.50;56.80;;;;;;5033765;28;20217;-40
2022/12/20 00:50:58;;;;;;;4.40;3.00;;;21.40;56.90;;;;;;5031720;28;20197;-39
2022/12/20 00:53:27;;;;;;;2.92;2.72;;;21.60;57.10;;;;;;5030208;28;20200;-36
2022/12/20 00:55:53;;;;;;;4.07;3.28;;;21.70;56.80;;;;;;5022347;28;20196;-36
2022/12/20 00:58:20;;;;;;;3.63;3.20;;;21.70;56.60;;;;;;5029608;28;20200;-39
2022/12/20 01:00:47;;;;;;;3.10;2.60;;;21.70;56.60;;;;;;5029091;28;20197;-38
2022/12/20 01:03:14;;;;;;;8.38;3.70;;;21.60;56.60;;;;;;5029420;28;20194;-36
2022/12/20 01:05:40;;;;;;;6.05;3.25;;;21.60;56.70;;;;;;5031993;28;20204;-37
2022/12/20 01:08:07;;;;;;;5.75;2.90;;;21.50;56.70;;;;;;5034346;28;20228;-36
2022/12/20 01:10:35;;;;;;;4.95;3.55;;;21.50;56.80;;;;;;5034769;28;20679;-36
2022/12/20 01:13:02;;;;;;;3.92;3.50;;;21.40;56.80;;;;;;5027343;28;20212;-37
2022/12/20 01:15:28;;;;;;;6.28;3.40;;;21.40;56.90;;;;;;5024995;28;20188;-39
2022/12/20 01:17:56;;;;;;;3.80;3.15;;;21.60;57.00;;;;;;5025251;28;20202;-41
2022/12/20 01:20:23;;;;;;;3.50;2.90;;;21.60;56.70;;;;;;5028849;28;20691;-37
2022/12/20 01:22:50;;;;;;;4.10;2.75;;;21.60;56.60;;;;;;5029890;28;20200;-39
2022/12/20 01:25:17;;;;;;;3.45;3.13;;;21.60;56.70;;;;;;5024970;28;20216;-39
2022/12/20 01:27:45;;;;;;;4.35;3.17;;;21.60;56.70;;;;;;5031861;28;20223;-40
2022/12/20 01:30:12;;;;;;;4.18;3.58;;;21.50;56.60;;;;;;5020295;28;20200;-36
2022/12/20 01:32:39;;;;;;;5.28;3.00;;;21.50;56.70;;;;;;5020376;28;20197;-39
2022/12/20 01:35:06;;;;;;;4.82;3.30;;;21.40;56.80;;;;;;5027504;28;20739;-38
2022/12/20 01:37:33;;;;;;;5.82;3.92;;;21.30;56.80;;;;;;5032903;28;20196;-39
2022/12/20 01:39:59;;;;;;;4.57;2.78;;;21.40;57.00;;;;;;5020608;28;20615;-38
2022/12/20 01:42:26;;;;;;;4.20;3.25;;;21.50;56.90;;;;;;5021065;28;20208;-37
2022/12/20 01:45:00;;;;;;;4.55;3.67;;;21.60;56.70;;;;;;5022572;28;20215;-42
2022/12/20 01:47:29;;;;;;;5.47;3.15;;;21.60;56.60;;;;;;5025056;28;20610;-43
2022/12/20 01:49:58;;;;;;;3.38;3.03;;;21.50;56.60;;;;;;5015841;28;20200;-36
2022/12/20 01:52:32;;;;;;;3.45;3.15;;;21.50;56.60;;;;;;5024173;28;20193;-42
2022/12/20 01:55:05;;;;;;;4.50;3.20;;;21.40;56.70;;;;;;5018756;28;20487;-36
2022/12/20 01:57:37;;;;;;;4.55;3.08;;;21.40;56.80;;;;;;5028744;28;20201;-37
2022/12/20 02:00:08;;;;;;;4.18;2.65;;;21.30;56.90;;;;;;5029151;28;20318;-40
2022/12/20 02:02:36;;;;;;;3.08;2.28;;;21.40;57.00;;;;;;5025705;28;20227;-40
2022/12/20 02:05:03;;;;;;;3.03;2.63;;;21.40;57.30;;;;;;5032852;28;20197;-37
2022/12/20 02:07:33;;;;;;;3.00;2.50;;;21.50;56.70;;;;;;5031714;28;20231;-40
2022/12/20 02:10:01;;;;;;;3.75;2.92;;;21.50;56.60;;;;;;5030056;28;20585;-40
2022/12/20 02:12:37;;;;;;;3.22;2.92;;;21.50;56.60;;;;;;5029851;28;20208;-41
2022/12/20 02:15:29;;;;;;;3.53;3.20;;;21.40;56.60;;;;;;5031284;28;20196;-42
2022/12/20 02:18:07;;;;;;;4.15;3.05;;;21.40;56.60;;;;;;5022209;28;20201;-38
2022/12/20 02:20:56;;;;;;;3.38;2.60;;;21.40;56.80;;;;;;5025557;28;20216;-37
2022/12/20 02:23:38;;;;;;;3.10;2.63;;;21.30;56.90;;;;;;5026144;28;20442;-39
2022/12/20 02:26:25;;;;;;;4.25;2.72;;;21.30;57.10;;;;;;5026602;28;20546;-36
2022/12/20 02:29:12;;;;;;;4.90;2.72;;;21.40;56.80;;;;;;5025469;28;20224;-39
2022/12/20 02:31:45;;;;;;;5.13;3.50;;;21.40;56.60;;;;;;5025542;28;20196;-37
2022/12/20 02:34:13;;;;;;;4.47;4.07;;;21.50;56.60;;;;;;5022992;28;20196;-40
2022/12/20 02:36:40;;;;;;;3.20;2.90;;;21.40;56.70;;;;;;5024340;28;20748;-38
2022/12/20 02:39:15;;;;;;;3.63;3.28;;;21.40;56.60;;;;;;5026143;28;20196;-37
2022/12/20 02:41:47;;;;;;;4.38;2.63;;;21.40;56.70;;;;;;5021025;28;20203;-37
2022/12/20 02:47:08;;;;;;;4.35;3.53;;;21.20;56.90;;;;;;5020710;28;20569;-38
2022/12/20 02:49:40;;;;;;;3.20;2.33;;;21.20;57.00;;;;;;5026549;28;20201;-40
2022/12/20 02:52:09;;;;;;;3.83;2.80;;;21.30;57.10;;;;;;5026491;28;20203;-41
2022/12/20 02:54:37;;;;;;;2.80;2.58;;;21.40;56.90;;;;;;5023764;28;20661;-41
2022/12/20 02:57:12;;;;;;;3.33;2.92;;;21.40;56.70;;;;;;5020577;28;20204;-40
2022/12/20 02:59:45;;;;;;;5.13;3.20;;;21.40;56.60;;;;;;5027552;28;20192;-39
2022/12/20 03:02:14;;;;;;;2.58;1.83;;;21.40;56.70;;;;;;5025956;28;20224;-37
2022/12/20 03:04:41;;;;;;;3.40;2.63;;;21.30;56.70;;;;;;5028099;28;20664;-38
2022/12/20 03:07:11;;;;;;;3.65;3.35;;;21.30;56.80;;;;;;5024256;28;20196;-36
2022/12/20 03:09:40;;;;;;;4.32;3.45;;;21.30;56.80;;;;;;5020869;28;20195;-36
2022/12/20 03:12:08;;;;;;;3.95;2.90;;;21.20;56.90;;;;;;5028137;28;20220;-36
2022/12/20 03:14:35;;;;;;;3.15;2.45;;;21.10;56.90;;;;;;5020836;28;20208;-37
2022/12/20 03:17:02;;;;;;;3.63;2.45;;;21.20;57.10;;;;;;5023796;28;20222;-37
2022/12/20 03:19:31;;;;;;;2.72;2.50;;;21.30;56.90;;;;;;5027920;28;20595;-39
2022/12/20 03:21:57;;;;;;;3.28;2.97;;;21.40;56.70;;;;;;5026506;28;20195;-37
2022/12/20 03:24:25;;;;;;;3.50;3.00;;;21.40;56.70;;;;;;5020097;28;20199;-37
2022/12/20 03:26:51;;;;;;;3.20;2.60;;;21.40;56.70;;;;;;5029060;28;20204;-38
2022/12/20 03:29:18;;;;;;;2.30;2.10;;;21.40;56.70;;;;;;5026657;28;20212;-42
2022/12/20 03:31:45;;;;;;;3.85;2.50;;;21.20;57.20;;;;;;5028841;28;20218;-41
2022/12/20 03:34:11;;;;;;;4.40;3.10;;;21.20;56.80;;;;;;5023048;28;20196;-39
2022/12/20 03:36:39;;;;;;;3.15;2.15;;;21.10;56.80;;;;;;5023114;28;20192;-37
2022/12/20 03:39:06;;;;;;;3.65;2.33;;;21.00;56.90;;;;;;5023176;28;20196;-37
2022/12/20 03:41:33;;;;;;;2.97;2.40;;;21.10;57.10;;;;;;5022789;28;20223;-38
2022/12/20 03:43:59;;;;;;;2.60;2.35;;;21.20;56.90;;;;;;5022461;28;20208;-38
2022/12/20 03:46:26;;;;;;;2.35;2.15;;;21.30;56.70;;;;;;5024495;28;20226;-37
2022/12/20 03:48:53;;;;;;;2.95;2.65;;;21.40;56.60;;;;;;5024841;28;20865;-35
2022/12/20 03:51:20;;;;;;;2.80;2.45;;;21.40;56.60;;;;;;5030774;28;20200;-37
2022/12/20 03:53:48;;;;;;;2.72;2.53;;;21.20;56.60;;;;;;5022239;28;20207;-37
2022/12/20 03:56:14;;;;;;;2.28;2.08;;;21.20;56.70;;;;;;5031536;28;20196;-36
2022/12/20 03:58:41;;;;;;;2.55;2.33;;;21.10;56.80;;;;;;5027272;28;20421;-43
2022/12/20 04:01:19;;;;;;;3.17;2.28;;;21.00;56.80;;;;;;5030771;28;20196;-36
2022/12/20 04:03:46;;;;;;;2.70;2.15;;;21.00;56.90;;;;;;5030095;28;20593;-37
2022/12/20 04:06:13;;;;;;;4.07;2.47;;;21.10;57.10;;;;;;5036116;28;20201;-35
2022/12/20 04:08:39;;;;;;;3.45;2.28;;;21.20;56.90;;;;;;5030250;28;20223;-36
2022/12/20 04:11:16;;;;;;;2.85;2.30;;;21.30;56.80;;;;;;5034403;28;20193;-38
2022/12/20 04:13:43;;;;;;;2.85;2.40;;;21.30;56.60;;;;;;5027627;28;20204;-37
2022/12/20 04:16:11;;;;;;;2.00;1.80;;;21.30;56.70;;;;;;5030650;28;20228;-37
2022/12/20 04:18:37;;;;;;;4.30;3.92;;;21.20;56.70;;;;;;5034869;28;20220;-37
2022/12/20 04:21:06;;;;;;;3.67;2.50;;;21.10;56.70;;;;;;5033713;28;20695;-38
2022/12/20 04:23:33;;;;;;;3.28;2.33;;;21.10;56.70;;;;;;5032658;28;20196;-36
2022/12/20 04:25:59;;;;;;;5.13;2.63;;;21.00;56.80;;;;;;5031497;28;20193;-37
2022/12/20 04:28:27;;;;;;;4.88;4.53;;;21.00;56.90;;;;;;5029857;28;20267;-37
2022/12/20 04:30:54;;;;;;;2.65;2.45;;;21.00;57.10;;;;;;5030581;28;20199;-38
2022/12/20 04:33:21;;;;;;;3.65;2.50;;;21.10;56.90;;;;;;5031659;28;20785;-40
2022/12/20 04:35:48;;;;;;;3.35;2.33;;;21.20;56.70;;;;;;5028542;28;20731;-40
2022/12/20 04:38:15;;;;;;;2.60;2.40;;;21.20;56.60;;;;;;5025049;28;20219;-39
2022/12/20 04:40:42;;;;;;;6.05;5.68;;;21.10;56.60;;;;;;5030566;28;20207;-37
2022/12/20 04:43:09;;;;;;;4.60;2.60;;;21.10;56.70;;;;;;5029776;28;20227;-43
2022/12/20 04:45:37;;;;;;;2.95;2.70;;;21.10;56.80;;;;;;5026916;28;20579;-36
2022/12/20 04:48:04;;;;;;;4.53;4.22;;;21.00;56.70;;;;;;5028820;28;20238;-37
2022/12/20 04:50:30;;;;;;;5.20;3.05;;;21.00;56.80;;;;;;5035068;28;20219;-38
2022/12/20 04:55:41;;;;;;;4.70;3.72;;;21.00;56.90;;;;;;5029268;28;20215;-36
2022/12/20 04:58:08;;;;;;;3.25;2.28;;;21.10;57.00;;;;;;5030627;28;20204;-38
2022/12/20 05:00:36;;;;;;;2.42;2.22;;;21.40;56.70;;;;;;5028355;28;20200;-41
2022/12/20 05:03:03;;;;;;;2.78;2.28;;;21.40;56.30;;;;;;5027457;28;20572;-38
2022/12/20 05:05:30;;;;;;;3.15;2.65;;;21.50;56.20;;;;;;5029651;28;20277;-38
2022/12/20 05:07:57;;;;;;;3.85;2.20;;;21.40;56.20;;;;;;5028417;28;20219;-38
2022/12/20 05:10:24;;;;;;;3.83;2.60;;;21.40;56.30;;;;;;5025872;28;20200;-37
2022/12/20 05:12:51;;;;;;;2.53;2.30;;;21.40;56.40;;;;;;5030165;28;20195;-39
2022/12/20 05:15:18;;;;;;;3.35;2.08;;;21.60;56.20;;;;;;5028614;28;20200;-37
2022/12/20 05:17:46;;;;;;;2.05;1.70;;;21.70;56.00;;;;;;5026942;28;20200;-37
2022/12/20 05:20:13;;;;;;;3.80;2.30;;;21.90;55.90;;;;;;5031050;28;20212;-37
2022/12/20 05:28:08;;;;;;;2.58;2.15;;;22.20;55.40;;;;;;5028292;28;20561;-36
2022/12/20 05:30:35;;;;;;;2.00;1.88;;;22.30;55.20;;;;;;5024219;28;20199;-39
2022/12/20 05:33:03;;;;;;;1.75;1.50;;;22.40;55.20;;;;;;5028843;28;20200;-36
2022/12/20 05:35:30;;;;;;;2.80;2.53;;;22.50;55.20;;;;;;5036723;28;20653;-37
2022/12/20 05:37:57;;;;;;;2.65;2.20;;;22.60;55.00;;;;;;5027233;28;20644;-36
2022/12/20 05:40:24;;;;;;;4.25;1.80;;;22.50;55.10;;;;;;5028873;28;20202;-37
2022/12/20 05:42:50;;;;;;;2.65;2.10;;;22.50;55.10;;;;;;5036599;28;20199;-37
2022/12/20 05:45:17;;;;;;;3.00;2.80;;;22.60;55.10;;;;;;5026850;28;20575;-36
2022/12/20 05:47:43;;;;;;;2.30;2.10;;;22.60;54.90;;;;;;5027190;28;20200;-38
2022/12/20 05:50:12;;;;;;;2.53;2.33;;;22.60;54.90;;;;;;5034143;28;20215;-37
2022/12/20 05:52:39;;;;;;;2.78;2.58;;;22.60;55.00;;;;;;5033211;28;20552;-36
2022/12/20 05:55:06;;;;;;;3.45;2.10;;;22.70;54.80;;;;;;5027676;28;20199;-36
2022/12/20 05:57:32;;;;;;;2.45;2.25;;;22.70;54.70;;;;;;5030518;28;20196;-36
2022/12/20 05:59:59;;;;;;;2.72;2.15;;;22.70;54.90;;;;;;5030580;28;20203;-38
2022/12/20 06:02:26;;;;;;;2.30;1.95;;;22.60;55.00;;;;;;5027756;28;20197;-44
2022/12/20 06:04:52;;;;;;;2.38;2.17;;;22.50;55.10;;;;;;5033325;28;20208;-38
2022/12/20 06:07:21;;;;;;;2.40;1.85;;;22.50;55.30;;;;;;5027988;28;20196;-42
2022/12/20 06:09:47;;;;;;;2.00;1.80;;;22.50;55.30;;;;;;5027393;28;20224;-44
2022/12/20 06:12:14;;;;;;;1.85;1.45;;;22.60;55.40;;;;;;5033495;28;20199;-39
2022/12/20 06:14:41;;;;;;;2.08;1.60;;;22.70;55.30;;;;;;5031593;28;20195;-36
2022/12/20 06:17:07;;;;;;;2.60;1.83;;;22.70;55.10;;;;;;5025771;28;20204;-40
2022/12/20 06:19:34;;;;;;;4.57;4.18;;;22.70;55.10;;;;;;5029301;28;20212;-39
2022/12/20 06:22:02;;;;;;;2.35;2.15;;;22.70;55.10;;;;;;5038189;28;20197;-37
2022/12/20 06:24:30;;;;;;;2.83;2.55;;;22.70;55.00;;;;;;5019416;28;20314;-38
2022/12/20 06:26:57;;;;;;;1.70;1.60;;;22.80;55.10;;;;;;5024023;28;20204;-39
2022/12/20 06:29:23;;;;;;;2.42;2.22;;;22.70;55.10;;;;;;5022161;28;20216;-36
2022/12/20 06:31:50;;;;;;;2.05;1.95;;;22.80;55.10;;;;;;5024425;28;20193;-41
2022/12/20 06:34:17;;;;;;;2.10;1.67;;;22.80;55.00;;;;;;5024086;28;20207;-37
2022/12/20 06:36:44;;;;;;;2.78;1.83;;;22.70;55.10;;;;;;5018708;28;20197;-36
2022/12/20 06:39:11;;;;;;;3.88;1.80;;;22.70;55.30;;;;;;5020552;28;20207;-37
2022/12/20 06:41:40;;;;;;;2.53;2.15;;;22.60;55.40;;;;;;5024958;28;20580;-36
2022/12/20 06:44:07;;;;;;;3.25;1.98;;;22.50;55.40;;;;;;5030886;28;20205;-36
2022/12/20 06:46:34;;;;;;;2.58;2.08;;;22.50;55.60;;;;;;5023750;28;20192;-36
2022/12/20 06:49:00;;;;;;;2.85;1.92;;;22.50;55.60;;;;;;5028544;28;20230;-36
2022/12/20 06:51:27;;;;;;;3.25;1.60;;;22.60;55.40;;;;;;5031583;28;20196;-36
2022/12/20 06:53:54;;;;;;;1.55;1.25;;;22.60;55.40;;;;;;5025081;28;20651;-37
2022/12/20 06:56:20;;;;;;;1.83;1.73;;;22.70;55.40;;;;;;5026115;28;20598;-37
2022/12/20 06:58:48;;;;;;;2.53;1.63;;;22.70;55.40;;;;;;5030137;28;20207;-37
2022/12/20 07:01:15;;;;;;;1.83;1.58;;;22.80;55.30;;;;;;5025756;28;20196;-37
2022/12/20 07:03:42;;;;;;;1.98;1.77;;;22.80;55.30;;;;;;5025355;28;20202;-36
2022/12/20 07:06:08;;;;;;;2.25;1.75;;;22.80;55.30;;;;;;5034474;28;20196;-36
2022/12/20 07:08:35;;;;;;;1.40;1.30;;;22.80;55.30;;;;;;5023037;28;20570;-54
2022/12/20 07:11:06;;;;;;;2.78;1.73;;;22.80;55.20;;;;;;5027950;28;20197;-35
2022/12/20 07:13:33;;;;;;;1.38;1.27;;;22.80;55.30;;;;;;5024743;28;20226;-36
2022/12/20 07:16:02;;;;;;;1.40;1.30;;;22.90;55.30;;;;;;5026229;28;20199;-38
2022/12/20 07:18:29;;;;;;;1.52;1.42;;;22.90;55.30;;;;;;5026720;28;20193;-38
2022/12/20 07:21:00;;;;;;;2.45;1.48;;;22.80;55.10;;;;;;5035122;28;20213;-36
2022/12/20 07:23:27;;;;;;;1.90;1.35;;;22.80;55.30;;;;;;5022975;28;20232;-35
2022/12/20 07:25:55;;;;;;;2.13;1.50;;;22.80;55.30;;;;;;5025818;28;20657;-38
2022/12/20 07:28:22;;;;;;;1.50;1.40;;;22.80;55.30;;;;;;5031476;28;20224;-39
2022/12/20 07:30:49;;;;;;;1.42;1.30;;;22.90;55.20;;;;;;5020190;28;20230;-38
2022/12/20 07:33:17;;;;;;;1.67;1.58;;;22.80;55.30;;;;;;5023134;28;20214;-35
2022/12/20 07:35:44;;;;;;;2.10;1.60;;;22.80;55.20;;;;;;5034712;28;20607;-36
2022/12/20 07:38:11;;;;;;;2.35;1.58;;;22.80;55.30;;;;;;5020498;28;20544;-36
2022/12/20 07:40:40;;;;;;;1.80;1.42;;;22.90;55.30;;;;;;5029260;28;20200;-38
2022/12/20 07:43:07;;;;;;;1.60;1.50;;;22.80;55.20;;;;;;5026489;28;20283;-36
2022/12/20 07:45:33;;;;;;;2.05;1.63;;;22.80;55.30;;;;;;5024900;28;20696;-38
2022/12/20 07:48:00;;;;;;;1.75;1.60;;;22.80;55.40;;;;;;5016716;28;20203;-35
2022/12/20 07:50:29;;;;;;;2.42;2.00;;;22.80;55.40;;;;;;5026580;28;20212;-36
2022/12/20 07:52:56;;;;;;;1.90;1.38;;;22.80;55.30;;;;;;5026004;28;20193;-36
2022/12/20 07:55:23;;;;;;;2.75;1.65;;;22.80;55.40;;;;;;5028266;28;20200;-35
2022/12/20 07:57:53;;;;;;;1.63;1.48;;;22.80;55.30;;;;;;5024336;28;20204;-36
2022/12/20 08:00:20;;;;;;;1.77;1.65;;;22.80;55.40;;;;;;5028219;28;20655;-36
2022/12/20 08:02:53;;;;;;;1.75;1.60;;;22.90;55.40;;;;;;5021537;28;20597;-36
2022/12/20 08:05:20;;;;;;;1.58;1.48;;;22.80;55.40;;;;;;5022046;28;20673;-41
2022/12/20 08:07:49;;;;;;;1.63;1.40;;;22.80;55.40;;;;;;5017146;28;22034;-37
2022/12/20 08:10:19;;;;;;;1.45;1.25;;;22.90;55.40;;;;;;5025369;28;20220;-36
2022/12/20 08:12:47;;;;;;;2.20;2.00;;;22.90;55.20;;;;;;5027788;28;20243;-35
2022/12/20 08:15:14;;;;;;;2.03;1.33;;;22.90;55.50;;;;;;5025085;28;20204;-43
2022/12/20 08:17:41;;;;;;;1.50;1.27;;;22.90;55.20;;;;;;5018686;28;20209;-37
2022/12/20 08:20:08;;;;;;;1.73;1.40;;;22.90;55.30;;;;;;5024384;28;20216;-36
2022/12/20 08:22:35;;;;;;;2.65;1.40;;;23.00;55.20;;;;;;5029416;28;20275;-37
2022/12/20 08:25:04;;;;;;;2.85;1.55;;;23.00;55.20;;;;;;5025448;28;20195;-36
2022/12/20 08:27:30;;;;;;;2.80;1.70;;;23.10;55.10;;;;;;5025642;28;20471;-35
2022/12/20 08:29:57;;;;;;;2.38;2.28;;;23.10;55.10;;;;;;5027937;28;20565;-37
2022/12/20 08:32:24;;;;;;;2.22;1.58;;;23.10;54.90;;;;;;5026645;28;20188;-35
2022/12/20 08:34:51;;;;;;;1.67;1.58;;;23.20;54.90;;;;;;5023011;28;20684;-39
2022/12/20 08:37:18;;;;;;;2.35;1.40;;;23.10;55.50;;;;;;5016399;28;20679;-36
2022/12/20 08:39:45;;;;;;;2.13;1.60;;;23.10;55.10;;;;;;5023857;28;20211;-39
2022/12/20 08:42:13;;;;;;;2.95;1.80;;;22.80;55.00;;;;;;5029792;28;20216;-37
2022/12/20 08:44:40;;;;;;;2.30;2.10;;;22.70;55.40;;;;;;5030521;28;20212;-37
2022/12/20 08:47:06;;;;;;;1.70;1.60;;;22.60;55.40;;;;;;5023856;28;20609;-35
2022/12/20 08:49:33;;;;;;;1.70;1.20;;;22.50;55.50;;;;;;5036506;28;20227;-36
2022/12/20 08:52:00;;;;;;;1.70;1.60;;;22.40;55.70;;;;;;5022202;28;20192;-36
2022/12/20 08:54:26;;;;;;;1.75;1.40;;;22.30;55.80;;;;;;5033259;28;20199;-36
2022/12/20 08:56:53;;;;;;;2.33;1.67;;;22.40;56.00;;;;;;5037418;28;20204;-37
2022/12/20 08:59:21;;;;;;;1.35;1.25;;;22.40;55.90;;;;;;5033934;28;20668;-35
2022/12/20 09:01:48;;;;;;;2.22;1.50;;;22.50;55.70;;;;;;5028601;28;20222;-35
2022/12/20 09:04:15;;;;;;;1.80;1.20;;;22.60;55.60;;;;;;5039826;28;20606;-35
2022/12/20 09:06:41;;;;;;;2.05;1.35;;;22.70;55.40;;;;;;5030413;28;20236;-37
2022/12/20 09:09:08;;;;;;;1.67;1.38;;;22.90;55.20;;;;;;5024976;28;20188;-39
2022/12/20 09:11:35;;;;;;;2.10;1.50;;;23.10;55.00;;;;;;5035099;28;20678;-36
2022/12/20 09:14:02;;;;;;;3.55;1.70;;;23.30;54.90;;;;;;5018257;28;20209;-37
2022/12/20 09:16:31;;;;;;;1.70;1.27;;;23.30;54.70;;;;;;5031773;28;20204;-36
2022/12/20 09:18:59;;;;;;;1.42;1.05;;;23.30;55.20;;;;;;5029671;28;20668;-36
2022/12/20 09:21:26;;;;;;;1.50;1.38;;;23.40;54.60;;;;;;5029169;28;20207;-36
2022/12/20 09:23:55;;;;;;;1.67;1.35;;;23.50;54.50;;;;;;5027733;28;20197;-40
2022/12/20 09:26:23;;;;;;;1.75;1.10;;;23.40;54.50;;;;;;5038297;28;20191;-36
2022/12/20 09:28:50;;;;;;;1.85;1.20;;;23.40;54.50;;;;;;5018301;28;20651;-37
2022/12/20 09:31:19;;;;;;;1.75;1.25;;;23.40;54.50;;;;;;5033856;28;20223;-36
2022/12/20 09:33:47;;;;;;;1.35;1.10;;;23.40;54.50;;;;;;5024265;28;20197;-36
2022/12/20 09:36:16;;;;;;;1.63;1.38;;;23.30;54.60;;;;;;5033102;28;20211;-37
2022/12/20 09:38:43;;;;;;;1.80;1.42;;;23.40;54.50;;;;;;5029034;28;20202;-36
2022/12/20 09:41:29;;;;;;;1.85;1.40;;;23.40;54.60;;;;;;5034316;28;20219;-36
2022/12/20 09:43:58;;;;;;;1.50;1.40;;;23.40;54.60;;;;;;5032334;28;20608;-36
2022/12/20 09:46:26;;;;;;;1.65;1.55;;;23.30;54.60;;;;;;5029889;28;20660;-36
2022/12/20 09:48:54;;;;;;;1.10;1.00;;;23.30;54.70;;;;;;5021510;28;20192;-36
2022/12/20 09:51:53;;;;;;;1.30;1.20;;;23.10;54.70;;;;;;5029724;28;20651;-39
2022/12/20 09:54:30;;;;;;;1.20;1.10;;;23.10;54.80;;;;;;5021825;28;20219;-38
2022/12/20 09:57:03;;;;;;;1.30;1.20;;;23.10;54.90;;;;;;5024914;28;20191;-36
2022/12/20 09:59:33;;;;;;;1.35;1.00;;;23.00;54.90;;;;;;5038314;28;20676;-35
2022/12/20 10:02:00;;;;;;;1.23;1.13;;;23.00;55.10;;;;;;5029711;28;20200;-35
2022/12/20 10:04:29;;;;;;;2.08;1.23;;;23.00;55.20;;;;;;5028660;28;20459;-37
2022/12/20 10:07:17;;;;;;;1.80;1.40;;;22.90;55.50;;;;;;5037764;28;20247;-36
2022/12/20 10:10:09;;;;;;;2.33;1.63;;;22.80;55.80;;;;;;5019126;28;20227;-39
2022/12/20 10:12:46;;;;;;;2.45;1.38;;;22.80;56.20;;;;;;5018185;28;20460;-38
2022/12/20 10:15:19;;;;;;;1.70;1.30;;;22.80;56.60;;;;;;5026665;28;20191;-41
2022/12/20 10:18:19;;;;;;;1.42;1.25;;;22.80;56.40;;;;;;5028887;28;20309;-38
2022/12/20 10:20:56;;;;;;;2.00;1.75;;;22.80;56.40;;;;;;5031482;28;20335;-37
2022/12/20 10:23:27;;;;;;;2.92;1.40;;;22.80;56.40;;;;;;5018003;28;20210;-41
2022/12/20 10:25:56;;;;;;;1.70;1.23;;;22.90;56.50;;;;;;5019939;28;20204;-44
2022/12/20 10:28:27;;;;;;;1.50;1.40;;;22.90;56.50;;;;;;5022623;28;20220;-40
2022/12/20 10:30:54;;;;;;;1.90;1.60;;;22.90;56.50;;;;;;5018254;28;20295;-37
2022/12/20 10:33:29;;;;;;;1.33;1.02;;;23.00;56.60;;;;;;5017135;28;20285;-38
2022/12/20 10:36:18;;;;;;;1.30;1.13;;;23.00;56.70;;;;;;5029015;28;20624;-38
2022/12/20 10:38:46;;;;;;;1.73;1.17;;;23.00;56.60;;;;;;5024659;28;20426;-36
2022/12/20 10:41:17;;;;;;;1.15;1.05;;;23.00;56.70;;;;;;5030682;28;20197;-42
2022/12/20 10:43:47;;;;;;;1.30;1.17;;;23.00;56.80;;;;;;5024433;28;22581;-39
2022/12/20 10:46:16;;;;;;;1.80;1.30;;;23.00;56.80;;;;;;5021418;28;20228;-40
2022/12/20 10:48:44;;;;;;;2.05;1.30;;;22.90;56.70;;;;;;5031313;28;20205;-42
2022/12/20 10:51:17;;;;;;;1.50;1.15;;;22.90;56.90;;;;;;5034546;28;20445;-39
2022/12/20 10:53:53;;;;;;;1.70;1.20;;;22.80;57.00;;;;;;5025105;28;20209;-38
2022/12/20 10:56:23;;;;;;;1.48;1.38;;;22.80;57.00;;;;;;5025748;28;20671;-38
2022/12/20 10:58:55;;;;;;;1.35;1.15;;;22.70;57.10;;;;;;5030230;28;20198;-39
2022/12/20 11:01:25;;;;;;;1.15;1.00;;;22.70;57.30;;;;;;5030436;28;20200;-40
2022/12/20 11:03:57;;;;;;;3.20;1.60;;;22.70;57.40;;;;;;5033371;28;20187;-39
2022/12/20 11:06:28;;;;;;;1.92;1.25;;;22.70;57.30;;;;;;5029664;28;20201;-42
2022/12/20 11:09:12;;;;;;;1.90;1.20;;;22.80;57.30;;;;;;5027006;28;20198;-38
2022/12/20 11:11:39;;;;;;;1.35;1.20;;;22.80;57.30;;;;;;5030900;28;20727;-39
2022/12/20 11:14:15;;;;;;;1.40;1.30;;;22.90;57.20;;;;;;5027390;28;20203;-41
2022/12/20 11:16:44;;;;;;;1.25;1.08;;;23.00;57.10;;;;;;5039691;28;20210;-41
2022/12/20 11:19:43;;;;;;;1.60;1.30;;;23.10;57.00;;;;;;5022612;28;20223;-44
2022/12/20 11:22:23;;;;;;;3.50;1.90;;;23.20;56.90;;;;;;5033583;28;20192;-39
2022/12/20 11:25:00;;;;;;;1.23;1.00;;;23.30;56.90;;;;;;5026555;28;20197;-38
2022/12/20 11:27:35;;;;;;;1.63;1.00;;;23.30;56.80;;;;;;5031909;28;20200;-46
2022/12/20 11:30:12;;;;;;;1.93;1.20;;;23.30;56.80;;;;;;5032634;28;20460;-39
2022/12/20 11:33:12;;;;;;;1.25;1.00;;;23.40;56.80;;;;;;5027078;28;21087;-40
2022/12/20 11:35:49;;;;;;;2.72;1.40;;;23.40;56.90;;;;;;5017091;28;20216;-46
2022/12/20 11:38:29;;;;;;;1.92;1.58;;;23.40;56.70;;;;;;5030691;28;20188;-46
2022/12/20 11:41:11;;;;;;;2.10;1.90;;;23.40;56.40;;;;;;5025584;28;20201;-46
2022/12/20 11:43:58;;;;;;;1.40;1.20;;;23.20;56.20;;;;;;5032520;28;20192;-46
2022/12/20 11:46:36;;;;;;;1.88;1.48;;;23.00;56.30;;;;;;5022426;28;20466;-45
2022/12/20 11:49:36;;;;;;;2.88;2.20;;;22.80;56.20;;;;;;5022459;28;20195;-46
2022/12/20 11:52:08;;;;;;;3.05;2.65;;;22.70;56.20;;;;;;5019629;28;20233;-45
2022/12/20 11:54:41;;;;;;;3.40;1.92;;;22.60;56.30;;;;;;5019884;28;20678;-45
2022/12/20 11:57:15;;;;;;;2.28;1.70;;;22.40;56.70;;;;;;5031159;28;20708;-45
2022/12/20 11:59:46;;;;;;;5.50;5.10;;;22.30;56.60;;;;;;5030543;28;20199;-44
2022/12/20 12:02:16;;;;;;;1.50;1.40;;;22.20;56.80;;;;;;5027452;28;20267;-46
2022/12/20 12:04:48;;;;;;;2.45;2.10;;;22.10;56.70;;;;;;5018321;28;20572;-45
2022/12/20 12:07:19;;;;;;;3.72;1.55;;;22.10;56.90;;;;;;5027585;28;20724;-50
2022/12/20 12:09:55;;;;;;;17.00;16.27;;;21.90;57.00;;;;;;5020316;28;20825;-45
2022/12/20 12:12:26;;;;;;;6.00;5.60;;;21.80;57.10;;;;;;5026329;28;20221;-45
2022/12/20 12:14:59;;;;;;;8.07;7.65;;;21.70;57.30;;;;;;5025704;28;20192;-39
2022/12/20 12:17:32;;;;;;;3.30;1.40;;;21.60;57.80;;;;;;5030873;28;20193;-39
2022/12/20 12:20:19;;;;;;;1.80;1.40;;;21.70;57.90;;;;;;5027577;28;20306;-39
2022/12/20 12:22:50;;;;;;;3.05;1.35;;;21.80;58.10;;;;;;5028090;28;20197;-46
2022/12/20 12:25:19;;;;;;;1.27;1.17;;;22.00;58.10;;;;;;5035132;28;20188;-40
2022/12/20 12:27:46;;;;;;;2.95;1.27;;;22.10;58.00;;;;;;5032744;28;20196;-40
2022/12/20 12:30:14;;;;;;;1.60;1.38;;;22.20;57.80;;;;;;5031605;28;20215;-41
2022/12/20 12:32:47;;;;;;;1.20;1.00;;;22.30;57.60;;;;;;5031506;28;20245;-39
2022/12/20 12:35:25;;;;;;;2.60;1.63;;;22.40;58.00;;;;;;5028092;28;20203;-40
2022/12/20 12:38:09;;;;;;;3.28;1.70;;;22.60;57.40;;;;;;5030514;28;20196;-40
2022/12/20 12:41:10;;;;;;;1.35;1.15;;;22.60;57.30;;;;;;5032790;28;20197;-39
2022/12/20 12:43:46;;;;;;;1.60;1.50;;;22.70;57.30;;;;;;5020757;28;20281;-43
2022/12/20 12:46:16;;;;;;;4.10;1.33;;;22.80;57.30;;;;;;5030588;28;20199;-42
2022/12/20 12:48:46;;;;;;;1.55;1.33;;;22.80;57.30;;;;;;5028148;28;20262;-40
2022/12/20 12:51:15;;;;;;;1.92;1.65;;;22.80;57.30;;;;;;5028284;28;20223;-40
2022/12/20 12:53:45;;;;;;;4.40;1.23;;;22.80;57.40;;;;;;5035592;28;20199;-41
2022/12/20 12:56:38;;;;;;;2.05;1.20;;;22.80;57.30;;;;;;5020499;28;20661;-40
2022/12/20 12:59:19;;;;;;;1.60;1.48;;;22.80;57.30;;;;;;5031799;28;20275;-40
2022/12/20 13:01:49;;;;;;;1.50;1.08;;;22.80;57.30;;;;;;5030601;28;20200;-40
2022/12/20 13:04:28;;;;;;;1.50;1.08;;;22.80;57.40;;;;;;5031519;28;20206;-39
2022/12/20 13:06:58;;;;;;;1.30;1.13;;;22.80;57.50;;;;;;5031141;28;20714;-40
2022/12/20 13:09:40;;;;;;;1.60;1.40;;;22.70;57.60;;;;;;5027391;28;20281;-43
2022/12/20 13:12:55;;;;;;;1.40;1.20;;;22.70;57.60;;;;;;5031595;28;20213;-39